createdAt,value
2023-09-14T00:00:11.128Z,5.18
2023-09-14T00:01:13.549Z,4.68
2023-09-14T00:02:16.742Z,5.00
2023-09-14T00:03:19.564Z,4.88
2023-09-14T00:04:22.622Z,4.40
2023-09-14T00:05:24.684Z,4.68
2023-09-14T00:06:26.893Z,4.15
2023-09-14T00:07:29.033Z,4.60
2023-09-14T00:08:31.669Z,3.90
2023-09-14T00:09:33.949Z,3.67
2023-09-14T00:10:36.180Z,4.90
2023-09-14T00:11:38.354Z,4.22
2023-09-14T00:12:40.564Z,4.38
2023-09-14T00:13:42.790Z,3.95
2023-09-14T00:14:44.912Z,3.60
2023-09-14T00:15:47.214Z,4.15
2023-09-14T00:16:49.528Z,4.10
2023-09-14T00:17:51.807Z,3.90
2023-09-14T00:18:53.958Z,3.42
2023-09-14T00:19:56.130Z,3.72
2023-09-14T00:20:58.876Z,3.45
2023-09-14T00:22:01.071Z,3.90
2023-09-14T00:23:04.845Z,3.45
2023-09-14T00:24:07.432Z,3.67
2023-09-14T00:25:09.687Z,3.33
2023-09-14T00:26:12.406Z,3.63
2023-09-14T00:27:14.608Z,3.75
2023-09-14T00:28:18.391Z,3.35
2023-09-14T00:29:20.551Z,3.50
2023-09-14T00:30:23.976Z,3.47
2023-09-14T00:31:26.193Z,3.30
2023-09-14T00:32:28.558Z,3.15
2023-09-14T00:33:30.751Z,3.53
2023-09-14T00:34:32.913Z,3.17
2023-09-14T00:35:35.057Z,3.17
2023-09-14T00:36:37.569Z,3.10
2023-09-14T00:37:40.271Z,3.42
2023-09-14T00:38:42.629Z,3.00
2023-09-14T00:39:45.256Z,3.22
2023-09-14T00:40:47.509Z,3.20
2023-09-14T00:41:49.687Z,3.10
2023-09-14T00:42:52.522Z,3.08
2023-09-14T00:43:54.710Z,3.20
2023-09-14T00:44:56.849Z,2.83
2023-09-14T00:45:59.035Z,3.38
2023-09-14T00:47:01.345Z,3.60
2023-09-14T00:48:04.062Z,3.30
2023-09-14T00:49:06.375Z,2.90
2023-09-14T00:50:08.924Z,2.92
2023-09-14T00:51:11.159Z,3.42
2023-09-14T00:52:15.077Z,3.20
2023-09-14T00:53:17.692Z,3.33
2023-09-14T00:54:21.279Z,3.50
2023-09-14T00:55:24.713Z,3.70
2023-09-14T00:56:27.959Z,3.33
2023-09-14T00:57:30.201Z,3.53
2023-09-14T00:58:32.370Z,3.55
2023-09-14T00:59:34.940Z,3.17
2023-09-14T01:00:37.181Z,3.05
2023-09-14T01:01:39.556Z,3.00
2023-09-14T01:02:42.158Z,4.07
2023-09-14T01:03:44.951Z,3.70
2023-09-14T01:04:47.970Z,3.63
2023-09-14T01:05:50.703Z,3.42
2023-09-14T01:06:52.959Z,3.30
2023-09-14T01:07:55.648Z,3.22
2023-09-14T01:08:58.459Z,3.28
2023-09-14T01:10:01.329Z,3.60
2023-09-14T01:11:03.558Z,3.35
2023-09-14T01:12:09.264Z,2.80
2023-09-14T01:13:24.279Z,3.42
2023-09-14T01:14:42.989Z,3.50
2023-09-14T01:15:56.179Z,3.50
2023-09-14T01:17:08.242Z,3.33
2023-09-14T01:18:31.906Z,3.40
2023-09-14T01:19:47.282Z,3.63
2023-09-14T01:21:05.218Z,3.53
2023-09-14T01:22:32.103Z,3.38
2023-09-14T01:24:04.517Z,3.90
2023-09-14T01:25:10.567Z,3.47
2023-09-14T01:26:13.013Z,4.07
2023-09-14T01:27:15.964Z,3.90
2023-09-14T01:28:19.656Z,4.30
2023-09-14T01:29:21.856Z,3.90
2023-09-14T01:30:23.992Z,3.95
2023-09-14T01:31:27.113Z,3.47
2023-09-14T01:32:29.405Z,3.65
2023-09-14T01:33:32.666Z,3.65
2023-09-14T01:34:34.993Z,4.05
2023-09-14T01:36:04.799Z,4.15
2023-09-14T01:37:07.536Z,3.75
2023-09-14T01:38:09.976Z,3.88
2023-09-14T01:39:12.793Z,3.95
2023-09-14T01:40:15.057Z,4.10
2023-09-14T01:41:17.881Z,4.03
2023-09-14T01:42:22.111Z,4.47
2023-09-14T01:43:24.642Z,4.40
2023-09-14T01:44:28.398Z,4.15
2023-09-14T01:45:31.998Z,4.05
2023-09-14T01:46:34.324Z,4.38
2023-09-14T01:47:36.654Z,4.25
2023-09-14T01:48:38.862Z,4.10
2023-09-14T01:49:41.026Z,3.97
2023-09-14T01:50:43.776Z,3.95
2023-09-14T01:51:45.973Z,4.13
2023-09-14T01:52:48.316Z,4.85
2023-09-14T01:53:50.484Z,3.90
2023-09-14T01:54:52.715Z,4.18
2023-09-14T01:55:54.882Z,4.38
2023-09-14T01:56:57.076Z,4.88
2023-09-14T01:57:59.224Z,4.50
2023-09-14T01:59:01.452Z,4.28
2023-09-14T02:00:22.343Z,4.22
2023-09-14T02:01:24.516Z,4.78
2023-09-14T02:02:27.802Z,4.05
2023-09-14T02:03:29.997Z,4.63
2023-09-14T02:04:32.570Z,4.13
2023-09-14T02:05:35.845Z,5.00
2023-09-14T02:06:38.228Z,4.45
2023-09-14T02:07:40.438Z,4.88
2023-09-14T02:08:42.705Z,4.57
2023-09-14T02:09:44.871Z,4.25
2023-09-14T02:10:47.063Z,4.68
2023-09-14T02:11:49.258Z,4.65
2023-09-14T02:12:51.455Z,4.47
2023-09-14T02:13:53.649Z,4.38
2023-09-14T02:14:55.761Z,4.05
2023-09-14T02:15:58.425Z,4.32
2023-09-14T02:17:00.692Z,5.03
2023-09-14T02:18:03.076Z,4.03
2023-09-14T02:19:05.284Z,4.25
2023-09-14T02:20:10.000Z,4.40
2023-09-14T02:21:12.805Z,4.68
2023-09-14T02:22:14.944Z,4.20
2023-09-14T02:23:18.973Z,4.57
2023-09-14T02:24:21.223Z,4.38
2023-09-14T02:25:23.365Z,5.32
2023-09-14T02:26:25.518Z,3.95
2023-09-14T02:27:27.681Z,4.78
2023-09-14T02:28:29.834Z,4.45
2023-09-14T02:29:31.998Z,4.15
2023-09-14T02:30:34.172Z,4.57
2023-09-14T02:31:36.387Z,5.07
2023-09-14T02:32:38.854Z,4.65
2023-09-14T02:33:41.248Z,4.72
2023-09-14T02:34:43.523Z,4.53
2023-09-14T02:35:52.421Z,4.63
2023-09-14T02:36:55.556Z,4.13
2023-09-14T02:37:57.738Z,4.35
2023-09-14T02:38:59.912Z,4.15
2023-09-14T02:40:02.162Z,4.22
2023-09-14T02:41:04.391Z,4.72
2023-09-14T02:42:06.693Z,4.55
2023-09-14T02:43:09.155Z,4.90
2023-09-14T02:44:11.426Z,4.22
2023-09-14T02:45:13.600Z,4.00
2023-09-14T02:46:16.044Z,4.25
2023-09-14T02:47:18.217Z,4.00
2023-09-14T02:48:20.415Z,4.53
2023-09-14T02:49:22.707Z,4.82
2023-09-14T02:50:24.850Z,3.85
2023-09-14T02:51:27.110Z,4.32
2023-09-14T02:52:29.275Z,4.20
2023-09-14T02:53:31.456Z,4.22
2023-09-14T02:54:33.693Z,4.22
2023-09-14T02:55:36.163Z,4.03
2023-09-14T02:56:38.297Z,4.22
2023-09-14T02:57:40.705Z,3.92
2023-09-14T02:58:42.899Z,4.10
2023-09-14T02:59:45.038Z,4.47
2023-09-14T03:00:47.197Z,4.55
2023-09-14T03:01:50.947Z,3.88
2023-09-14T03:02:53.412Z,4.28
2023-09-14T03:03:55.752Z,3.67
2023-09-14T03:04:57.910Z,4.10
2023-09-14T03:06:00.053Z,4.05
2023-09-14T03:07:03.173Z,4.45
2023-09-14T03:08:05.770Z,4.10
2023-09-14T03:09:08.110Z,3.90
2023-09-14T03:10:10.631Z,3.88
2023-09-14T03:11:14.073Z,4.53
2023-09-14T03:12:16.233Z,4.07
2023-09-14T03:13:18.458Z,4.20
2023-09-14T03:14:20.645Z,4.13
2023-09-14T03:15:22.846Z,3.80
2023-09-14T03:16:25.126Z,4.18
2023-09-14T03:17:27.378Z,3.97
2023-09-14T03:18:29.656Z,4.20
2023-09-14T03:19:31.902Z,3.60
2023-09-14T03:20:34.093Z,4.50
2023-09-14T03:21:36.282Z,4.00
2023-09-14T03:22:38.460Z,3.83
2023-09-14T03:23:40.616Z,3.70
2023-09-14T03:24:43.137Z,3.95
2023-09-14T03:25:46.167Z,4.03
2023-09-14T03:26:48.368Z,3.67
2023-09-14T03:27:50.564Z,4.18
2023-09-14T03:28:52.814Z,4.15
2023-09-14T03:29:55.014Z,4.63
2023-09-14T03:30:57.211Z,4.68
2023-09-14T03:31:59.432Z,4.03
2023-09-14T03:33:01.684Z,4.43
2023-09-14T03:34:03.927Z,4.05
2023-09-14T03:35:06.502Z,4.60
2023-09-14T03:36:08.657Z,3.88
2023-09-14T03:37:10.835Z,4.03
2023-09-14T03:38:13.053Z,3.97
2023-09-14T03:39:16.483Z,4.70
2023-09-14T03:40:18.670Z,4.53
2023-09-14T03:41:20.943Z,4.13
2023-09-14T03:42:23.768Z,4.05
2023-09-14T03:43:25.951Z,4.35
2023-09-14T03:44:28.144Z,4.50
2023-09-14T03:45:30.376Z,4.10
2023-09-14T03:46:32.725Z,4.55
2023-09-14T03:47:35.000Z,4.15
2023-09-14T03:48:37.441Z,4.20
2023-09-14T03:49:39.657Z,5.15
2023-09-14T03:50:41.855Z,4.22
2023-09-14T03:51:44.128Z,4.82
2023-09-14T03:52:46.311Z,4.43
2023-09-14T03:53:48.496Z,4.57
2023-09-14T03:54:50.695Z,4.50
2023-09-14T03:55:54.037Z,4.45
2023-09-14T03:56:56.411Z,4.65
2023-09-14T03:57:58.929Z,4.72
2023-09-14T03:59:01.151Z,4.88
2023-09-14T04:00:08.545Z,4.78
2023-09-14T04:01:10.892Z,4.80
2023-09-14T04:02:13.212Z,4.95
2023-09-14T04:03:17.673Z,5.15
2023-09-14T04:05:21.911Z,4.75
2023-09-14T04:06:24.203Z,4.60
2023-09-14T04:07:26.406Z,5.00
2023-09-14T04:08:28.558Z,5.20
2023-09-14T04:09:30.913Z,5.05
2023-09-14T04:10:33.027Z,5.60
2023-09-14T04:11:35.393Z,6.20
2023-09-14T04:12:39.342Z,5.35
2023-09-14T04:13:41.602Z,4.95
2023-09-14T04:15:02.060Z,5.30
2023-09-14T04:16:06.168Z,5.22
2023-09-14T04:17:08.504Z,4.88
2023-09-14T04:18:10.653Z,4.97
2023-09-14T04:19:13.866Z,5.63
2023-09-14T04:20:16.136Z,4.72
2023-09-14T04:21:18.308Z,5.32
2023-09-14T04:22:20.519Z,5.15
2023-09-14T04:23:22.891Z,5.50
2023-09-14T04:24:25.095Z,5.30
2023-09-14T04:25:28.247Z,5.20
2023-09-14T04:26:30.503Z,5.60
2023-09-14T04:27:32.900Z,5.22
2023-09-14T04:28:35.094Z,5.07
2023-09-14T04:29:37.286Z,4.72
2023-09-14T04:30:47.030Z,5.22
2023-09-14T04:31:49.396Z,5.45
2023-09-14T04:32:52.056Z,4.90
2023-09-14T04:33:54.308Z,5.35
2023-09-14T04:34:56.515Z,4.85
2023-09-14T04:35:59.638Z,5.40
2023-09-14T04:37:01.933Z,5.22
2023-09-14T04:38:04.307Z,5.72
2023-09-14T04:39:06.951Z,5.75
2023-09-14T04:40:10.811Z,5.22
2023-09-14T04:41:13.186Z,5.95
2023-09-14T04:42:15.378Z,6.32
2023-09-14T04:43:17.584Z,6.15
2023-09-14T04:44:19.820Z,5.40
2023-09-14T04:45:22.050Z,5.95
2023-09-14T04:46:24.435Z,5.55
2023-09-14T04:47:26.696Z,5.75
2023-09-14T04:48:29.657Z,5.90
2023-09-14T04:49:31.843Z,5.03
2023-09-14T04:50:34.387Z,5.63
2023-09-14T04:51:36.564Z,6.45
2023-09-14T04:52:38.772Z,5.07
2023-09-14T04:53:40.960Z,6.13
2023-09-14T04:54:43.306Z,5.50
2023-09-14T04:55:46.506Z,5.28
2023-09-14T04:56:48.695Z,6.40
2023-09-14T04:57:56.656Z,5.47
2023-09-14T04:58:58.827Z,5.03
2023-09-14T05:00:00.996Z,5.18
2023-09-14T05:01:03.844Z,5.28
2023-09-14T05:02:06.018Z,5.40
2023-09-14T05:03:08.273Z,5.43
2023-09-14T05:04:10.581Z,6.70
2023-09-14T05:05:12.880Z,5.32
2023-09-14T05:06:15.022Z,5.32
2023-09-14T05:07:17.243Z,5.13
2023-09-14T05:08:19.454Z,5.90
2023-09-14T05:09:21.589Z,4.78
2023-09-14T05:10:24.196Z,5.07
2023-09-14T05:11:26.347Z,5.47
2023-09-14T05:12:29.384Z,5.32
2023-09-14T05:13:31.777Z,4.68
2023-09-14T05:14:33.933Z,5.10
2023-09-14T05:15:36.098Z,5.70
2023-09-14T05:16:38.484Z,5.10
2023-09-14T05:17:40.762Z,5.50
2023-09-14T05:18:43.131Z,4.63
2023-09-14T05:19:45.460Z,4.63
2023-09-14T05:20:51.114Z,4.70
2023-09-14T05:21:53.251Z,4.50
2023-09-14T05:22:55.442Z,4.65
2023-09-14T05:23:57.543Z,4.40
2023-09-14T05:24:59.718Z,4.55
2023-09-14T05:26:01.909Z,4.45
2023-09-14T05:27:04.356Z,4.43
2023-09-14T05:28:07.610Z,4.38
2023-09-14T05:29:09.822Z,4.35
2023-09-14T05:30:12.117Z,5.25
2023-09-14T05:31:14.475Z,4.75
2023-09-14T05:32:16.797Z,4.35
2023-09-14T05:33:19.550Z,4.03
2023-09-14T05:34:24.456Z,5.10
2023-09-14T05:35:27.444Z,4.60
2023-09-14T05:36:29.592Z,4.38
2023-09-14T05:37:31.767Z,4.35
2023-09-14T05:38:33.886Z,4.68
2023-09-14T05:39:36.047Z,4.65
2023-09-14T05:40:38.180Z,4.43
2023-09-14T05:41:41.659Z,4.45
2023-09-14T05:42:43.907Z,4.65
2023-09-14T05:43:46.045Z,4.47
2023-09-14T05:44:49.206Z,4.43
2023-09-14T05:45:52.433Z,5.07
2023-09-14T05:46:54.797Z,5.18
2023-09-14T05:47:57.146Z,5.03
2023-09-14T05:48:59.486Z,4.72
2023-09-14T05:50:01.912Z,4.55
2023-09-14T05:51:04.530Z,4.53
2023-09-14T05:52:06.738Z,4.15
2023-09-14T05:53:08.978Z,4.22
2023-09-14T05:54:11.144Z,4.95
2023-09-14T05:55:13.382Z,4.25
2023-09-14T05:56:15.817Z,4.93
2023-09-14T05:57:17.999Z,4.78
2023-09-14T05:58:20.174Z,4.70
2023-09-14T05:59:31.932Z,5.03
2023-09-14T06:00:34.678Z,4.55
2023-09-14T06:01:37.488Z,4.88
2023-09-14T06:02:42.927Z,4.43
2023-09-14T06:03:45.213Z,4.90
2023-09-14T06:04:48.538Z,4.20
2023-09-14T06:05:50.806Z,5.13
2023-09-14T06:06:52.954Z,5.20
2023-09-14T06:07:55.882Z,4.97
2023-09-14T06:08:58.229Z,5.10
2023-09-14T06:10:00.465Z,4.65
2023-09-14T06:11:02.660Z,4.75
2023-09-14T06:12:05.249Z,4.68
2023-09-14T06:13:07.483Z,5.28
2023-09-14T06:14:09.672Z,4.88
2023-09-14T06:15:11.889Z,5.00
2023-09-14T06:16:14.230Z,4.70
2023-09-14T06:17:16.435Z,5.03
2023-09-14T06:18:18.688Z,5.00
2023-09-14T06:19:21.175Z,5.30
2023-09-14T06:20:23.396Z,4.70
2023-09-14T06:21:25.532Z,5.15
2023-09-14T06:22:27.783Z,5.05
2023-09-14T06:23:29.918Z,4.85
2023-09-14T06:24:32.133Z,4.38
2023-09-14T06:25:34.268Z,5.05
2023-09-14T06:26:36.386Z,4.82
2023-09-14T06:27:38.636Z,4.95
2023-09-14T06:28:41.213Z,5.15
2023-09-14T06:29:43.420Z,5.35
2023-09-14T06:30:45.645Z,5.07
2023-09-14T06:31:47.958Z,5.63
2023-09-14T06:32:50.297Z,5.00
2023-09-14T06:33:52.911Z,4.90
2023-09-14T06:34:55.217Z,5.63
2023-09-14T06:35:57.422Z,5.50
2023-09-14T06:36:59.581Z,4.65
2023-09-14T06:38:05.276Z,5.18
2023-09-14T06:39:08.302Z,5.05
2023-09-14T06:40:11.351Z,5.10
2023-09-14T06:41:14.616Z,4.72
2023-09-14T06:42:16.782Z,4.93
2023-09-14T06:43:18.995Z,5.22
2023-09-14T06:44:22.394Z,4.63
2023-09-14T06:45:24.511Z,5.07
2023-09-14T06:46:26.872Z,4.72
2023-09-14T06:47:29.100Z,5.47
2023-09-14T06:48:31.256Z,5.30
2023-09-14T06:49:33.421Z,4.85
2023-09-14T06:50:35.690Z,4.97
2023-09-14T06:51:37.852Z,4.90
2023-09-14T06:52:40.024Z,5.30
2023-09-14T06:53:42.153Z,5.13
2023-09-14T06:54:46.921Z,5.25
2023-09-14T06:55:49.091Z,5.00
2023-09-14T06:56:51.433Z,5.07
2023-09-14T06:57:53.764Z,5.15
2023-09-14T06:58:56.216Z,5.40
2023-09-14T06:59:58.481Z,5.30
2023-09-14T07:01:05.699Z,4.45
2023-09-14T07:02:08.149Z,4.63
2023-09-14T07:03:10.585Z,5.35
2023-09-14T07:04:12.911Z,5.28
2023-09-14T07:05:15.385Z,5.60
2023-09-14T07:06:17.545Z,5.72
2023-09-14T07:07:19.799Z,5.15
2023-09-14T07:08:22.009Z,5.20
2023-09-14T07:09:24.778Z,4.95
2023-09-14T07:10:27.117Z,5.45
2023-09-14T07:11:29.269Z,4.80
2023-09-14T07:12:31.404Z,5.32
2023-09-14T07:13:34.171Z,4.50
2023-09-14T07:14:36.354Z,4.97
2023-09-14T07:15:38.456Z,5.28
2023-09-14T07:16:41.070Z,4.90
2023-09-14T07:17:43.490Z,5.55
2023-09-14T07:18:46.884Z,5.03
2023-09-14T07:19:49.905Z,5.03
2023-09-14T07:20:53.427Z,5.20
2023-09-14T07:21:58.187Z,4.80
2023-09-14T07:23:00.446Z,4.90
2023-09-14T07:24:02.588Z,4.93
2023-09-14T07:25:06.245Z,4.90
2023-09-14T07:26:08.957Z,4.70
2023-09-14T07:27:11.174Z,4.80
2023-09-14T07:28:13.448Z,6.03
2023-09-14T07:29:16.533Z,4.68
2023-09-14T07:30:18.690Z,5.22
2023-09-14T07:31:20.876Z,5.22
2023-09-14T07:32:23.180Z,5.10
2023-09-14T07:33:27.084Z,5.00
2023-09-14T07:34:29.282Z,5.00
2023-09-14T07:35:31.488Z,5.15
2023-09-14T07:36:33.632Z,5.28
2023-09-14T07:37:36.236Z,5.70
2023-09-14T07:38:38.698Z,5.32
2023-09-14T07:39:40.850Z,5.47
2023-09-14T07:40:43.419Z,5.13
2023-09-14T07:41:45.600Z,5.40
2023-09-14T07:42:47.885Z,5.22
2023-09-14T07:43:50.022Z,5.00
2023-09-14T07:44:52.256Z,4.43
2023-09-14T07:45:58.117Z,4.93
2023-09-14T07:47:00.476Z,5.18
2023-09-14T07:48:04.663Z,5.85
2023-09-14T07:49:07.329Z,6.05
2023-09-14T07:50:09.882Z,4.85
2023-09-14T07:51:12.035Z,5.20
2023-09-14T07:52:14.229Z,5.20
2023-09-14T07:53:16.827Z,5.20
2023-09-14T07:54:19.104Z,5.43
2023-09-14T07:55:21.588Z,6.20
2023-09-14T07:56:23.979Z,5.10
2023-09-14T07:57:26.129Z,5.40
2023-09-14T07:58:28.631Z,5.82
2023-09-14T07:59:30.817Z,5.95
2023-09-14T08:00:36.472Z,5.50
2023-09-14T08:01:38.932Z,5.20
2023-09-14T08:02:41.335Z,5.55
2023-09-14T08:03:43.775Z,5.20
2023-09-14T08:04:46.258Z,5.95
2023-09-14T08:05:48.538Z,5.90
2023-09-14T08:06:50.698Z,5.72
2023-09-14T08:07:53.915Z,5.13
2023-09-14T08:08:56.422Z,5.15
2023-09-14T08:09:58.600Z,5.32
2023-09-14T08:11:01.717Z,5.85
2023-09-14T08:12:04.087Z,5.25
2023-09-14T08:13:06.275Z,5.90
2023-09-14T08:14:08.554Z,5.82
2023-09-14T08:15:11.316Z,5.88
2023-09-14T08:16:13.572Z,5.35
2023-09-14T08:17:15.760Z,5.63
2023-09-14T08:18:19.814Z,5.88
2023-09-14T08:19:22.038Z,5.55
2023-09-14T08:20:24.227Z,5.55
2023-09-14T08:21:26.377Z,6.30
2023-09-14T08:22:28.753Z,5.70
2023-09-14T08:23:30.927Z,6.30
2023-09-14T08:24:33.083Z,5.75
2023-09-14T08:25:37.097Z,5.72
2023-09-14T08:26:39.218Z,6.13
2023-09-14T08:27:41.680Z,6.05
2023-09-14T08:28:43.803Z,6.05
2023-09-14T08:29:46.554Z,5.57
2023-09-14T08:30:49.768Z,5.75
2023-09-14T08:31:52.095Z,6.05
2023-09-14T08:32:54.290Z,5.63
2023-09-14T08:33:56.564Z,6.07
2023-09-14T08:34:59.693Z,6.20
2023-09-14T08:36:01.886Z,6.60
2023-09-14T08:37:04.842Z,5.75
2023-09-14T08:38:08.323Z,6.05
2023-09-14T08:39:16.346Z,5.32
2023-09-14T08:40:20.050Z,5.30
2023-09-14T08:41:52.447Z,6.00
2023-09-14T08:42:55.831Z,5.28
2023-09-14T08:43:58.455Z,5.22
2023-09-14T08:45:00.667Z,5.30
2023-09-14T08:46:03.500Z,5.55
2023-09-14T08:47:06.545Z,5.28
2023-09-14T08:48:09.852Z,5.57
2023-09-14T08:49:12.807Z,5.25
2023-09-14T08:50:16.023Z,5.07
2023-09-14T08:51:18.935Z,5.00
2023-09-14T08:52:21.596Z,5.30
2023-09-14T08:53:23.949Z,5.40
2023-09-14T08:54:26.781Z,4.85
2023-09-14T08:55:31.237Z,5.13
2023-09-14T08:56:34.272Z,4.93
2023-09-14T08:57:37.487Z,5.30
2023-09-14T08:58:40.704Z,5.10
2023-09-14T08:59:42.838Z,5.60
2023-09-14T09:00:46.221Z,5.22
2023-09-14T09:01:52.093Z,4.90
2023-09-14T09:02:55.760Z,4.72
2023-09-14T09:03:58.076Z,5.00
2023-09-14T09:05:00.445Z,5.13
2023-09-14T09:06:02.807Z,4.75
2023-09-14T09:07:05.611Z,4.70
2023-09-14T09:08:07.908Z,4.93
2023-09-14T09:09:11.862Z,4.90
2023-09-14T09:10:17.831Z,4.82
2023-09-14T09:11:20.121Z,5.10
2023-09-14T09:12:22.276Z,4.80
2023-09-14T09:13:33.163Z,4.38
2023-09-14T09:14:38.517Z,4.43
2023-09-14T09:15:40.672Z,4.63
2023-09-14T09:16:42.916Z,4.82
2023-09-14T09:17:45.702Z,4.50
2023-09-14T09:19:04.913Z,4.50
2023-09-14T09:20:17.833Z,4.65
2023-09-14T09:21:33.810Z,4.70
2023-09-14T09:22:40.667Z,4.70
2023-09-14T09:23:42.806Z,5.13
2023-09-14T09:24:45.047Z,4.70
2023-09-14T09:25:52.200Z,4.85
2023-09-14T09:26:55.624Z,4.82
2023-09-14T09:27:58.924Z,5.03
2023-09-14T09:29:01.073Z,4.90
2023-09-14T09:30:04.787Z,4.78
2023-09-14T09:31:06.945Z,4.60
2023-09-14T09:32:21.862Z,4.75
2023-09-14T09:33:42.356Z,4.80
2023-09-14T09:34:44.504Z,5.10
2023-09-14T09:35:46.633Z,5.13
2023-09-14T09:36:49.431Z,5.22
2023-09-14T09:37:52.403Z,5.00
2023-09-14T09:38:55.407Z,4.85
2023-09-14T09:39:58.441Z,5.20
2023-09-14T09:41:01.692Z,4.78
2023-09-14T09:42:04.350Z,4.80
2023-09-14T09:43:08.800Z,5.05
2023-09-14T09:44:11.021Z,5.10
2023-09-14T09:45:14.247Z,5.10
2023-09-14T09:46:17.189Z,5.07
2023-09-14T09:47:20.592Z,4.68
2023-09-14T09:48:22.739Z,4.80
2023-09-14T09:49:25.736Z,4.75
2023-09-14T09:50:28.211Z,4.72
2023-09-14T09:51:30.952Z,4.68
2023-09-14T09:52:34.438Z,4.68
2023-09-14T09:53:37.238Z,4.65
2023-09-14T09:54:39.411Z,4.95
2023-09-14T09:55:44.428Z,5.40
2023-09-14T09:56:46.630Z,4.75
2023-09-14T09:57:55.416Z,4.65
2023-09-14T09:58:57.847Z,4.93
2023-09-14T10:00:00.099Z,5.55
2023-09-14T10:01:02.498Z,5.20
2023-09-14T10:02:04.628Z,4.90
2023-09-14T10:03:07.485Z,4.97
2023-09-14T10:04:10.996Z,5.35
2023-09-14T10:05:13.226Z,5.20
2023-09-14T10:06:15.542Z,5.25
2023-09-14T10:07:22.921Z,5.25
2023-09-14T10:08:25.139Z,5.05
2023-09-14T10:09:34.072Z,5.70
2023-09-14T10:10:36.656Z,4.68
2023-09-14T10:11:39.811Z,4.75
2023-09-14T10:12:42.529Z,5.30
2023-09-14T10:13:44.954Z,5.50
2023-09-14T10:14:49.624Z,4.90
2023-09-14T10:15:54.446Z,5.13
2023-09-14T10:16:57.747Z,4.57
2023-09-14T10:17:59.948Z,5.10
2023-09-14T10:19:04.018Z,5.93
2023-09-14T10:20:07.473Z,3.90
2023-09-14T10:21:09.731Z,4.13
2023-09-14T10:22:12.329Z,4.97
2023-09-14T10:23:16.978Z,4.30
2023-09-14T10:24:19.940Z,4.75
2023-09-14T10:25:22.505Z,4.72
2023-09-14T10:26:25.059Z,4.25
2023-09-14T10:27:30.718Z,4.82
2023-09-14T10:28:33.482Z,4.22
2023-09-14T10:29:39.440Z,4.38
2023-09-14T10:30:43.373Z,4.70
2023-09-14T10:31:47.956Z,4.18
2023-09-14T10:32:53.877Z,4.60
2023-09-14T10:34:01.364Z,4.57
2023-09-14T10:35:06.869Z,4.60
2023-09-14T10:36:10.627Z,4.32
2023-09-14T10:37:13.082Z,4.85
2023-09-14T10:38:15.680Z,4.95
2023-09-14T10:39:23.409Z,4.15
2023-09-14T10:40:27.611Z,5.30
2023-09-14T10:41:29.813Z,5.30
2023-09-14T10:42:32.073Z,4.60
2023-09-14T10:43:34.279Z,4.40
2023-09-14T10:44:36.661Z,4.63
2023-09-14T10:45:40.395Z,4.93
2023-09-14T10:46:43.790Z,4.00
2023-09-14T10:47:49.806Z,4.18
2023-09-14T10:48:52.471Z,4.10
2023-09-14T10:49:55.502Z,4.43
2023-09-14T10:50:59.583Z,4.32
2023-09-14T10:52:02.066Z,4.60
2023-09-14T10:53:04.469Z,4.53
2023-09-14T10:54:06.723Z,4.15
2023-09-14T10:55:10.203Z,4.32
2023-09-14T10:56:32.914Z,5.10
2023-09-14T10:57:36.231Z,4.45
2023-09-14T10:58:42.899Z,4.13
2023-09-14T10:59:48.514Z,4.28
2023-09-14T11:00:58.330Z,4.30
2023-09-14T11:02:18.985Z,4.35
2023-09-14T11:03:25.018Z,4.10
2023-09-14T11:04:28.238Z,4.00
2023-09-14T11:05:44.937Z,4.10
2023-09-14T11:06:57.299Z,3.88
2023-09-14T11:08:02.644Z,4.75
2023-09-14T11:09:07.841Z,4.00
2023-09-14T11:10:11.747Z,4.03
2023-09-14T11:11:14.268Z,4.22
2023-09-14T11:12:22.752Z,4.00
2023-09-14T11:13:28.187Z,4.05
2023-09-14T11:14:31.988Z,3.72
2023-09-14T11:15:35.858Z,4.43
2023-09-14T11:16:51.059Z,3.97
2023-09-14T11:17:55.248Z,4.10
2023-09-14T11:20:03.584Z,3.63
2023-09-14T11:21:08.210Z,3.65
2023-09-14T11:22:19.156Z,4.07
2023-09-14T11:23:34.078Z,4.88
2023-09-14T11:24:39.475Z,4.82
2023-09-14T11:26:00.538Z,4.30
2023-09-14T11:27:08.508Z,4.45
2023-09-14T11:28:22.310Z,4.53
2023-09-14T11:29:28.399Z,4.82
2023-09-14T11:30:32.677Z,3.92
2023-09-14T11:31:55.756Z,4.60
2023-09-14T11:32:59.230Z,4.68
2023-09-14T11:34:11.849Z,5.10
2023-09-14T11:35:18.926Z,4.68
2023-09-14T11:36:22.705Z,5.15
2023-09-14T11:37:29.491Z,5.30
2023-09-14T11:38:33.727Z,4.38
2023-09-14T11:39:38.381Z,4.95
2023-09-14T11:40:41.468Z,4.82
2023-09-14T11:41:50.222Z,4.80
2023-09-14T11:43:16.842Z,4.90
2023-09-14T11:45:25.146Z,4.82
2023-09-14T11:46:28.987Z,4.82
2023-09-14T11:47:35.247Z,4.93
2023-09-14T11:49:51.241Z,4.45
2023-09-14T11:50:53.960Z,5.00
2023-09-14T11:51:56.776Z,4.53
2023-09-14T11:52:59.860Z,4.32
2023-09-14T11:54:02.829Z,4.63
2023-09-14T11:55:05.905Z,4.55
2023-09-14T11:56:08.216Z,4.90
2023-09-14T11:57:10.444Z,4.20
2023-09-14T11:58:14.362Z,4.22
2023-09-14T11:59:32.504Z,3.97
2023-09-14T12:00:39.063Z,3.92
2023-09-14T12:01:41.684Z,3.60
2023-09-14T12:02:44.020Z,3.70
2023-09-14T12:03:46.677Z,4.25
2023-09-14T12:04:50.317Z,3.53
2023-09-14T12:05:58.190Z,3.72
2023-09-14T12:07:03.199Z,4.07
2023-09-14T12:08:12.483Z,4.03
2023-09-14T12:09:30.827Z,4.03
2023-09-14T12:10:36.934Z,4.03
2023-09-14T12:11:40.967Z,4.30
2023-09-14T12:12:43.159Z,4.60
2023-09-14T12:13:51.811Z,4.22
2023-09-14T12:14:54.195Z,3.65
2023-09-14T12:16:01.401Z,3.65
2023-09-14T12:17:04.061Z,4.20
2023-09-14T12:18:06.544Z,5.10
2023-09-14T12:19:13.234Z,4.38
2023-09-14T12:20:16.411Z,3.75
2023-09-14T12:21:20.324Z,4.20
2023-09-14T12:22:23.708Z,3.90
2023-09-14T12:23:26.023Z,3.40
2023-09-14T12:24:28.294Z,3.63
2023-09-14T12:25:30.664Z,3.85
2023-09-14T12:26:33.353Z,3.67
2023-09-14T12:27:37.226Z,3.72
2023-09-14T12:28:40.396Z,4.18
2023-09-14T12:29:43.382Z,3.80
2023-09-14T12:30:45.594Z,3.60
2023-09-14T12:31:47.937Z,3.47
2023-09-14T12:32:50.179Z,3.92
2023-09-14T12:33:53.172Z,3.40
2023-09-14T12:34:55.462Z,3.58
2023-09-14T12:35:58.735Z,3.20
2023-09-14T12:37:01.973Z,3.17
2023-09-14T12:38:07.483Z,3.10
2023-09-14T12:39:28.298Z,3.35
2023-09-14T12:40:35.271Z,2.85
2023-09-14T12:41:37.456Z,2.90
2023-09-14T12:42:43.882Z,3.33
2023-09-14T12:43:46.448Z,3.13
2023-09-14T12:44:50.021Z,3.25
2023-09-14T12:45:52.382Z,2.80
2023-09-14T12:46:54.939Z,2.83
2023-09-14T12:47:57.196Z,2.75
2023-09-14T12:49:02.523Z,3.17
2023-09-14T12:50:05.842Z,3.33
2023-09-14T12:51:08.023Z,3.10
2023-09-14T12:52:10.225Z,3.60
2023-09-14T12:53:14.635Z,3.00
2023-09-14T12:55:23.458Z,3.08
2023-09-14T12:56:25.846Z,2.95
2023-09-14T12:57:28.099Z,3.30
2023-09-14T12:58:30.850Z,2.90
2023-09-14T12:59:33.011Z,3.40
2023-09-14T13:00:35.788Z,3.80
2023-09-14T13:01:40.636Z,3.15
2023-09-14T13:02:44.524Z,3.33
2023-09-14T13:03:46.942Z,2.90
2023-09-14T13:04:49.332Z,3.35
2023-09-14T13:05:54.718Z,2.80
2023-09-14T13:06:58.104Z,2.85
2023-09-14T13:08:01.688Z,3.20
2023-09-14T13:09:09.005Z,3.10
2023-09-14T13:10:13.097Z,2.55
2023-09-14T13:11:25.062Z,3.13
2023-09-14T13:12:27.255Z,2.60
2023-09-14T13:13:31.534Z,3.00
2023-09-14T13:14:35.727Z,2.90
2023-09-14T13:15:40.673Z,2.83
2023-09-14T13:16:59.279Z,2.92
2023-09-14T13:18:09.422Z,3.00
2023-09-14T13:19:11.672Z,3.20
2023-09-14T13:20:13.920Z,2.72
2023-09-14T13:21:16.130Z,2.30
2023-09-14T13:22:18.369Z,2.50
2023-09-14T13:23:21.038Z,3.25
2023-09-14T13:24:23.354Z,2.70
2023-09-14T13:25:25.873Z,2.60
2023-09-14T13:26:28.025Z,2.67
2023-09-14T13:27:32.916Z,2.70
2023-09-14T13:28:35.081Z,2.35
2023-09-14T13:29:37.225Z,2.72
2023-09-14T13:30:40.248Z,2.63
2023-09-14T13:31:42.683Z,3.00
2023-09-14T13:32:47.944Z,2.72
2023-09-14T13:33:50.217Z,2.60
2023-09-14T13:34:52.361Z,2.58
2023-09-14T13:35:56.143Z,2.90
2023-09-14T13:36:58.376Z,2.47
2023-09-14T13:38:00.812Z,2.55
2023-09-14T13:39:02.972Z,2.70
2023-09-14T13:40:15.770Z,3.10
2023-09-14T13:41:17.959Z,2.83
2023-09-14T13:42:20.105Z,2.58
2023-09-14T13:43:22.404Z,2.40
2023-09-14T13:44:24.525Z,3.00
2023-09-14T13:45:28.376Z,2.83
2023-09-14T13:46:30.675Z,2.72
2023-09-14T13:47:33.049Z,3.05
2023-09-14T13:48:35.239Z,2.45
2023-09-14T13:49:37.901Z,2.38
2023-09-14T13:50:40.276Z,2.58
2023-09-14T13:51:43.577Z,2.60
2023-09-14T13:52:45.834Z,2.95
2023-09-14T13:53:48.326Z,2.75
2023-09-14T13:54:50.592Z,2.90
2023-09-14T13:55:52.890Z,2.47
2023-09-14T13:56:55.063Z,2.75
2023-09-14T13:57:57.295Z,2.47
2023-09-14T13:58:59.531Z,2.30
2023-09-14T14:00:05.930Z,2.53
2023-09-14T14:01:08.060Z,2.53
2023-09-14T14:02:10.273Z,2.40
2023-09-14T14:03:12.938Z,2.40
2023-09-14T14:04:15.569Z,2.30
2023-09-14T14:05:18.344Z,2.75
2023-09-14T14:06:20.532Z,2.80
2023-09-14T14:07:22.670Z,2.67
2023-09-14T14:08:27.156Z,2.97
2023-09-14T14:09:29.428Z,2.67
2023-09-14T14:10:32.565Z,2.47
2023-09-14T14:11:34.671Z,2.70
2023-09-14T14:12:36.980Z,2.88